Time;durP1;ratioP1;P1;durP2;ratioP2;P2;SDS_P1;SDS_P2;PMS_P1;PMS_P2;Temp;Humidity;BMP_temperature;BMP_pressure;BME280_temperature;BME280_humidity;BME280_pressure;Samples;Min_cycle;Max_cycle;Signal;HPM_P1;HPM_P2
2022/05/24 00:01:04;;;;;;;5.40;4.90;;;16.60;99.90;;;;;;5094292;28;20656;-73
2022/05/24 00:03:31;;;;;;;3.50;3.23;;;16.60;99.90;;;;;;5059189;28;21211;-73
2022/05/24 00:05:58;;;;;;;4.40;4.00;;;16.60;99.90;;;;;;5094481;28;20646;-74
2022/05/24 00:08:24;;;;;;;5.27;3.77;;;16.60;99.90;;;;;;5094398;28;20952;-73
2022/05/24 00:10:53;;;;;;;3.73;3.50;;;16.60;99.90;;;;;;5094230;28;20614;-73
2022/05/24 00:13:19;;;;;;;4.87;4.43;;;16.60;99.90;;;;;;5075683;28;20617;-73
2022/05/24 00:15:46;;;;;;;5.13;4.77;;;16.60;99.90;;;;;;5095093;28;20613;-74
2022/05/24 00:18:19;;;;;;;5.33;4.83;;;16.50;99.90;;;;;;5095480;28;20618;-73
2022/05/24 00:20:50;;;;;;;4.87;4.57;;;16.40;99.90;;;;;;5094967;28;20648;-74
2022/05/24 00:23:17;;;;;;;4.73;4.43;;;16.30;99.90;;;;;;5095196;28;20582;-74
2022/05/24 00:25:46;;;;;;;5.20;4.80;;;16.30;99.90;;;;;;5094615;28;20621;-74
2022/05/24 00:28:14;;;;;;;5.20;4.80;;;16.20;99.90;;;;;;5075944;28;20617;-73
2022/05/24 00:30:43;;;;;;;5.40;5.00;;;16.20;99.90;;;;;;5094146;28;20958;-74
2022/05/24 00:33:10;;;;;;;4.90;4.50;;;16.20;99.90;;;;;;5094220;28;20601;-74
2022/05/24 00:35:36;;;;;;;5.23;4.83;;;16.20;99.90;;;;;;5095413;28;20620;-73
2022/05/24 00:38:05;;;;;;;5.10;4.70;;;16.20;99.90;;;;;;5097392;28;20621;-73
2022/05/24 00:40:59;;;;;;;5.10;4.67;;;16.20;99.90;;;;;;5097210;28;21021;-73
2022/05/24 00:43:46;;;;;;;4.90;4.63;;;16.30;99.90;;;;;;5097500;28;20668;-74
2022/05/24 00:46:22;;;;;;;6.60;6.00;;;16.20;99.90;;;;;;5097298;28;20573;-74
2022/05/24 00:49:04;;;;;;;5.97;4.80;;;16.30;99.90;;;;;;5096968;28;20649;-73
2022/05/24 00:51:47;;;;;;;6.43;5.83;;;16.30;99.90;;;;;;5098090;28;20576;-74
2022/05/24 00:54:14;;;;;;;7.47;5.57;;;16.30;99.90;;;;;;5097896;28;20621;-74
2022/05/24 00:56:53;;;;;;;6.30;5.80;;;16.20;99.90;;;;;;5097873;28;20693;-74
2022/05/24 00:59:32;;;;;;;6.67;6.17;;;16.20;99.90;;;;;;5098486;28;20670;-74
2022/05/24 01:01:58;;;;;;;7.00;6.40;;;16.20;99.90;;;;;;5078776;28;20613;-71
2022/05/24 01:04:25;;;;;;;7.23;6.63;;;16.10;99.90;;;;;;5096376;28;20631;-72
2022/05/24 01:06:51;;;;;;;8.30;7.50;;;16.10;99.90;;;;;;5096475;28;21026;-72
2022/05/24 01:09:36;;;;;;;7.83;7.23;;;16.00;99.90;;;;;;5096118;28;20632;-72
2022/05/24 01:12:09;;;;;;;8.47;7.70;;;16.00;99.90;;;;;;5096342;28;20600;-71
2022/05/24 01:14:36;;;;;;;8.40;7.60;;;16.00;99.90;;;;;;5078360;28;20984;-72
2022/05/24 01:17:03;;;;;;;8.07;7.27;;;16.00;99.90;;;;;;5095903;28;20609;-71
2022/05/24 01:19:50;;;;;;;8.17;7.37;;;16.00;99.90;;;;;;5095456;28;21008;-72
2022/05/24 01:22:44;;;;;;;9.37;8.57;;;15.90;99.90;;;;;;5077285;28;20965;-72
2022/05/24 01:25:52;;;;;;;9.37;8.67;;;15.90;99.90;;;;;;5095872;28;20964;-71
2022/05/24 01:28:31;;;;;;;9.73;8.73;;;15.90;99.90;;;;;;5057330;28;20628;-71
2022/05/24 01:30:58;;;;;;;10.87;9.77;;;15.80;99.90;;;;;;5096444;28;20687;-72
2022/05/24 01:36:12;;;;;;;9.50;8.70;;;15.80;99.90;;;;;;5095631;28;20585;-72
2022/05/24 01:38:51;;;;;;;9.43;8.30;;;15.70;99.90;;;;;;5095517;28;21152;-71
2022/05/24 01:41:23;;;;;;;9.23;8.63;;;15.70;99.90;;;;;;5095513;28;20664;-71
2022/05/24 01:43:53;;;;;;;9.53;8.73;;;15.70;99.90;;;;;;5095484;28;21089;-71
2022/05/24 01:46:44;;;;;;;10.83;8.97;;;15.70;99.90;;;;;;5094735;28;21016;-71
2022/05/24 01:49:21;;;;;;;11.13;10.23;;;15.70;99.90;;;;;;5095300;28;20944;-72
2022/05/24 01:52:04;;;;;;;9.73;8.93;;;15.60;99.90;;;;;;5095839;28;20577;-71
2022/05/24 01:54:38;;;;;;;16.00;9.47;;;15.50;99.90;;;;;;5095137;28;20962;-72
2022/05/24 01:57:17;;;;;;;10.93;10.03;;;15.50;99.90;;;;;;5095488;28;20666;-72
2022/05/24 01:59:47;;;;;;;10.70;9.60;;;15.50;99.90;;;;;;5095119;28;21155;-71
2022/05/24 02:02:13;;;;;;;10.80;9.77;;;15.40;99.90;;;;;;5095208;28;20652;-71
2022/05/24 02:04:40;;;;;;;10.70;9.90;;;15.40;99.90;;;;;;5060935;28;20588;-71
2022/05/24 02:07:14;;;;;;;11.83;10.80;;;15.40;99.90;;;;;;5076921;28;20660;-71
2022/05/24 02:09:48;;;;;;;11.37;10.40;;;15.40;99.90;;;;;;5076596;28;20623;-71
2022/05/24 02:12:40;;;;;;;10.70;9.60;;;15.40;99.90;;;;;;5095366;28;20580;-71
2022/05/24 02:15:10;;;;;;;9.90;8.90;;;15.40;99.90;;;;;;5094827;28;20592;-71
2022/05/24 02:17:54;;;;;;;10.70;9.90;;;15.30;99.90;;;;;;5094402;28;21171;-71
2022/05/24 02:20:32;;;;;;;10.17;9.27;;;15.30;99.90;;;;;;5094988;28;20629;-71
2022/05/24 02:22:59;;;;;;;10.50;9.67;;;15.30;99.90;;;;;;5095288;28;20570;-71
2022/05/24 02:25:38;;;;;;;9.07;8.20;;;15.30;99.90;;;;;;5094717;28;20615;-71
2022/05/24 02:28:08;;;;;;;9.60;8.60;;;15.20;99.90;;;;;;5094648;28;20617;-72
2022/05/24 02:30:38;;;;;;;8.77;8.00;;;15.20;99.90;;;;;;5094924;28;20601;-72
2022/05/24 02:33:04;;;;;;;9.03;8.37;;;15.30;99.90;;;;;;5094836;28;20606;-72
2022/05/24 02:35:31;;;;;;;9.63;8.63;;;15.20;99.90;;;;;;5094379;28;20980;-71
2022/05/24 02:37:58;;;;;;;7.70;7.17;;;15.20;99.90;;;;;;5094176;28;20960;-72
2022/05/24 02:43:09;;;;;;;7.80;7.20;;;15.20;99.90;;;;;;5094174;28;20616;-72
2022/05/24 02:45:36;;;;;;;7.00;6.37;;;15.20;99.90;;;;;;5076402;28;20677;-72
2022/05/24 02:48:04;;;;;;;7.33;6.83;;;15.20;99.90;;;;;;5094542;28;20610;-72
2022/05/24 02:50:30;;;;;;;13.83;6.90;;;15.20;99.90;;;;;;5094142;28;20960;-72
2022/05/24 02:52:57;;;;;;;6.93;6.13;;;15.20;99.90;;;;;;5093490;28;20617;-70
2022/05/24 02:55:23;;;;;;;6.77;6.17;;;15.20;99.90;;;;;;5093962;28;20661;-72
2022/05/24 02:57:50;;;;;;;5.90;5.50;;;15.20;99.90;;;;;;5094258;28;20602;-72
2022/05/24 03:00:20;;;;;;;5.87;5.47;;;15.20;99.90;;;;;;5093282;28;20665;-70
2022/05/24 03:02:47;;;;;;;5.53;4.97;;;15.20;99.90;;;;;;5075419;28;20620;-70
2022/05/24 03:05:14;;;;;;;4.33;4.13;;;15.20;99.90;;;;;;5059193;28;20657;-70
2022/05/24 03:10:27;;;;;;;4.40;4.00;;;15.20;99.90;;;;;;5094239;28;20581;-71
2022/05/24 03:15:40;;;;;;;5.50;4.13;;;15.30;99.90;;;;;;5093832;28;21101;-72
2022/05/24 03:18:09;;;;;;;3.80;3.50;;;15.30;99.90;;;;;;5075459;28;20621;-71
2022/05/24 03:20:35;;;;;;;4.10;3.80;;;15.30;99.90;;;;;;5075669;28;20695;-72
2022/05/24 03:23:03;;;;;;;3.50;3.20;;;15.20;99.90;;;;;;5093915;28;21161;-72
2022/05/24 03:25:31;;;;;;;3.93;3.57;;;15.20;99.90;;;;;;5094221;28;20614;-72
2022/05/24 03:27:58;;;;;;;3.13;2.90;;;15.20;99.90;;;;;;5094454;28;20628;-71
2022/05/24 03:30:25;;;;;;;3.67;3.47;;;15.20;99.90;;;;;;5094012;28;20647;-71
2022/05/24 03:32:52;;;;;;;3.30;3.10;;;15.20;99.90;;;;;;5094215;28;20738;-71
2022/05/24 03:35:19;;;;;;;3.57;3.37;;;15.20;99.90;;;;;;5094202;28;20617;-71
2022/05/24 03:37:46;;;;;;;3.10;2.90;;;15.20;99.90;;;;;;5093698;28;21056;-71
2022/05/24 03:40:12;;;;;;;3.13;2.83;;;15.20;99.90;;;;;;5093507;28;20656;-72
2022/05/24 03:42:39;;;;;;;3.53;3.20;;;15.20;99.90;;;;;;5093462;28;20562;-71
2022/05/24 03:45:08;;;;;;;3.50;3.20;;;15.20;99.90;;;;;;5093821;28;20613;-72
2022/05/24 03:47:36;;;;;;;3.20;3.00;;;15.20;99.90;;;;;;5093459;28;20617;-72
2022/05/24 03:50:04;;;;;;;4.77;3.30;;;15.20;99.90;;;;;;5093737;28;20613;-71
2022/05/24 03:52:31;;;;;;;3.30;3.10;;;15.20;99.90;;;;;;5093844;28;20613;-71
2022/05/24 03:54:57;;;;;;;3.53;3.00;;;15.10;99.90;;;;;;5074799;28;20632;-71
2022/05/24 04:00:10;;;;;;;5.23;2.90;;;15.10;99.90;;;;;;5093416;28;20637;-71
2022/05/24 04:02:36;;;;;;;3.33;3.07;;;15.10;99.90;;;;;;5092923;28;20976;-71
2022/05/24 04:05:03;;;;;;;3.30;3.10;;;15.10;99.90;;;;;;5093940;28;20633;-71
2022/05/24 04:07:29;;;;;;;3.37;3.07;;;15.00;99.90;;;;;;5093778;28;20608;-71
2022/05/24 04:09:56;;;;;;;4.17;3.77;;;15.10;99.90;;;;;;5059372;28;20625;-71
2022/05/24 04:12:22;;;;;;;5.10;3.13;;;15.10;99.90;;;;;;5079518;28;20617;-71
2022/05/24 04:14:50;;;;;;;2.60;2.40;;;15.10;99.90;;;;;;5097684;28;21159;-71
2022/05/24 04:17:16;;;;;;;4.30;3.10;;;15.20;99.90;;;;;;5097959;28;20604;-71
2022/05/24 04:19:43;;;;;;;4.23;3.13;;;15.20;99.90;;;;;;5097311;28;20965;-71
2022/05/24 04:22:09;;;;;;;6.57;2.80;;;15.20;99.90;;;;;;5079558;28;20601;-71
2022/05/24 04:24:35;;;;;;;2.63;2.53;;;15.20;99.90;;;;;;5063074;28;20613;-71
2022/05/24 04:27:05;;;;;;;3.30;3.00;;;15.10;99.90;;;;;;5062948;28;21194;-71
2022/05/24 04:29:31;;;;;;;8.00;2.37;;;15.10;99.90;;;;;;5097498;28;20609;-71
2022/05/24 04:31:57;;;;;;;2.70;2.60;;;15.10;99.90;;;;;;5079660;28;20597;-70
2022/05/24 04:34:24;;;;;;;3.07;2.87;;;15.10;99.90;;;;;;5079334;28;20621;-71
2022/05/24 04:36:50;;;;;;;2.70;2.60;;;15.20;99.90;;;;;;5097331;28;20616;-71
2022/05/24 04:39:17;;;;;;;3.93;2.23;;;15.20;99.90;;;;;;5079472;28;20605;-71
2022/05/24 04:44:30;;;;;;;15.93;2.93;;;15.20;99.90;;;;;;5069288;28;20577;-71
2022/05/24 04:47:07;;;;;;;2.87;2.60;;;15.20;99.90;;;;;;5100498;28;20641;-72
2022/05/24 04:49:39;;;;;;;2.83;2.60;;;15.10;99.90;;;;;;5097914;28;20582;-71
2022/05/24 04:52:07;;;;;;;2.70;2.60;;;15.20;99.90;;;;;;5078983;28;20619;-70
2022/05/24 04:54:34;;;;;;;2.57;2.47;;;15.30;99.90;;;;;;5096835;28;20612;-71
2022/05/24 04:57:01;;;;;;;2.57;2.40;;;15.40;99.90;;;;;;5096861;28;20609;-71
2022/05/24 04:59:27;;;;;;;5.60;2.17;;;15.50;99.90;;;;;;5096007;28;20620;-71
2022/05/24 05:01:54;;;;;;;2.50;1.90;;;15.50;99.90;;;;;;5096281;28;20645;-71
2022/05/24 05:04:22;;;;;;;7.37;2.00;;;15.60;99.90;;;;;;5096587;28;20612;-71
2022/05/24 05:06:49;;;;;;;3.57;1.70;;;15.60;99.90;;;;;;5078710;28;20645;-71
2022/05/24 05:09:15;;;;;;;2.40;2.20;;;15.60;99.90;;;;;;5096402;28;21060;-71
2022/05/24 05:11:43;;;;;;;1.83;1.70;;;15.60;99.90;;;;;;5096204;28;20623;-71
2022/05/24 05:14:10;;;;;;;2.70;2.03;;;15.60;99.90;;;;;;5096414;28;20689;-72
2022/05/24 05:16:37;;;;;;;1.83;1.73;;;15.60;99.90;;;;;;5078299;28;20624;-70
2022/05/24 05:19:06;;;;;;;2.23;1.93;;;15.60;99.90;;;;;;5096104;28;20605;-71
2022/05/24 05:21:34;;;;;;;4.93;2.43;;;15.60;99.90;;;;;;5095653;28;20657;-70
2022/05/24 05:24:02;;;;;;;5.70;2.03;;;15.70;99.90;;;;;;5095813;28;20625;-71
2022/05/24 05:26:29;;;;;;;2.63;1.80;;;15.70;99.90;;;;;;5096034;28;20594;-71
2022/05/24 05:28:56;;;;;;;1.87;1.77;;;15.70;99.90;;;;;;5078087;28;20605;-72
2022/05/24 05:31:26;;;;;;;4.77;1.63;;;15.70;99.90;;;;;;5096080;28;20650;-71
2022/05/24 05:33:57;;;;;;;1.00;1.00;;;15.60;99.90;;;;;;5077852;28;20625;-71
2022/05/24 05:36:25;;;;;;;2.37;0.70;;;15.50;99.90;;;;;;5095847;28;20608;-72
2022/05/24 05:38:51;;;;;;;0.80;0.80;;;15.30;99.90;;;;;;5096235;28;20662;-72
2022/05/24 05:41:21;;;;;;;0.70;0.70;;;15.00;99.90;;;;;;5095952;28;20661;-71
2022/05/24 05:43:48;;;;;;;1.70;0.73;;;14.60;99.90;;;;;;5095918;28;20597;-71
2022/05/24 05:46:15;;;;;;;1.73;0.60;;;14.40;99.90;;;;;;5095819;28;20612;-71
2022/05/24 05:48:42;;;;;;;1.13;0.70;;;14.30;99.90;;;;;;5077834;28;20600;-71
2022/05/24 05:51:12;;;;;;;2.07;0.87;;;14.20;99.90;;;;;;5095649;28;20601;-74
2022/05/24 05:53:52;;;;;;;;;;;;;;;;;;;;;
2022/05/24 05:56:22;;;;;;;0.80;0.73;;;14.50;99.90;;;;;;5083335;28;20617;-75
2022/05/24 05:58:49;;;;;;;0.80;0.80;;;14.60;99.90;;;;;;5078499;28;20612;-71
2022/05/24 06:01:29;;;;;;;0.70;0.70;;;14.70;99.90;;;;;;5095046;28;20703;-70
2022/05/24 06:03:57;;;;;;;0.60;0.60;;;14.50;99.90;;;;;;5095109;28;20572;-71
2022/05/24 06:06:26;;;;;;;0.87;0.87;;;14.50;99.90;;;;;;5095376;28;20665;-70
2022/05/24 06:08:52;;;;;;;0.70;0.70;;;14.60;99.90;;;;;;5094726;28;20616;-70
2022/05/24 06:11:18;;;;;;;1.73;0.93;;;14.60;99.90;;;;;;5094524;28;20735;-69
2022/05/24 06:13:45;;;;;;;0.80;0.80;;;14.70;99.90;;;;;;5076460;28;20642;-70
2022/05/24 06:16:11;;;;;;;1.17;0.80;;;14.80;99.90;;;;;;5076105;28;21168;-69
2022/05/24 06:18:38;;;;;;;0.80;0.70;;;14.70;99.90;;;;;;5076565;28;20621;-69
2022/05/24 06:21:05;;;;;;;0.80;0.80;;;14.80;99.90;;;;;;5076990;28;21006;-69
2022/05/24 06:23:31;;;;;;;0.70;0.70;;;14.80;99.90;;;;;;5094695;28;20958;-70
2022/05/24 06:25:58;;;;;;;1.20;0.80;;;15.00;99.90;;;;;;5094393;28;21160;-69
2022/05/24 06:28:26;;;;;;;0.90;0.80;;;15.00;99.90;;;;;;5095048;28;20616;-68
2022/05/24 06:30:52;;;;;;;0.80;0.80;;;15.20;99.90;;;;;;5076397;28;20622;-69
2022/05/24 06:33:19;;;;;;;0.80;0.80;;;15.30;99.90;;;;;;5094059;28;20620;-69
2022/05/24 06:35:45;;;;;;;1.67;1.20;;;15.30;99.90;;;;;;5094559;28;20599;-70
2022/05/24 06:38:12;;;;;;;2.70;0.90;;;15.20;99.90;;;;;;5094865;28;20605;-68
2022/05/24 06:40:38;;;;;;;2.30;0.90;;;15.20;99.90;;;;;;5076844;28;20668;-69
2022/05/24 06:43:05;;;;;;;4.23;0.83;;;15.10;99.90;;;;;;5094820;28;20602;-69
2022/05/24 06:45:32;;;;;;;4.30;1.00;;;15.00;99.90;;;;;;5076112;28;20725;-70
2022/05/24 06:47:59;;;;;;;1.13;1.03;;;14.60;99.90;;;;;;5094521;28;20940;-69
2022/05/24 06:50:26;;;;;;;0.80;0.80;;;14.40;99.90;;;;;;5093921;28;21286;-69
2022/05/24 06:52:56;;;;;;;1.57;1.47;;;14.30;99.90;;;;;;5076316;28;21156;-69
2022/05/24 06:55:24;;;;;;;2.47;1.37;;;14.30;99.90;;;;;;5094202;28;20596;-69
2022/05/24 06:57:51;;;;;;;1.63;1.30;;;14.30;99.90;;;;;;5094247;28;20613;-69
2022/05/24 07:03:10;;;;;;;1.53;1.00;;;14.50;99.90;;;;;;5094085;28;20574;-69
2022/05/24 07:05:37;;;;;;;1.27;1.17;;;14.60;99.90;;;;;;5076092;28;21005;-67
2022/05/24 07:08:04;;;;;;;8.13;1.47;;;14.60;99.90;;;;;;5094017;28;20584;-68
2022/05/24 07:10:33;;;;;;;1.23;1.10;;;14.60;99.90;;;;;;5075066;28;21168;-67
2022/05/24 07:13:01;;;;;;;1.30;1.03;;;14.60;99.90;;;;;;5093428;28;20621;-67
2022/05/24 07:15:28;;;;;;;1.10;1.00;;;14.50;99.90;;;;;;5093852;28;20609;-67
2022/05/24 07:17:54;;;;;;;0.90;0.90;;;14.50;99.90;;;;;;5093745;28;20959;-68
2022/05/24 07:20:21;;;;;;;0.80;0.80;;;14.40;99.90;;;;;;5075960;28;20596;-70
2022/05/24 07:22:48;;;;;;;1.00;0.97;;;14.50;99.90;;;;;;5094359;28;20597;-69
2022/05/24 07:25:18;;;;;;;4.30;1.27;;;14.70;99.90;;;;;;5093827;28;20620;-68
2022/05/24 07:27:44;;;;;;;0.80;0.80;;;14.90;99.90;;;;;;5093455;28;21043;-68
2022/05/24 07:30:11;;;;;;;2.33;1.13;;;15.20;99.90;;;;;;5093391;28;21192;-68
2022/05/24 07:32:38;;;;;;;0.80;0.80;;;15.40;99.90;;;;;;5093708;28;21045;-68
2022/05/24 07:35:05;;;;;;;3.53;0.80;;;15.50;99.90;;;;;;5093978;28;21000;-68
2022/05/24 07:37:32;;;;;;;0.77;0.77;;;15.70;99.90;;;;;;5093768;28;20609;-68
2022/05/24 07:48:14;;;;;;;1.40;0.80;;;16.20;99.90;;;;;;5094381;28;20544;-69
2022/05/24 07:50:42;;;;;;;2.13;0.90;;;16.30;99.90;;;;;;5075599;28;20665;-69
2022/05/24 07:53:09;;;;;;;2.80;1.00;;;16.30;99.90;;;;;;5094086;28;21010;-70
2022/05/24 07:55:36;;;;;;;3.30;1.30;;;16.20;99.90;;;;;;5093912;28;20589;-70
2022/05/24 07:58:03;;;;;;;1.27;0.80;;;16.40;99.90;;;;;;5094771;28;20602;-69
2022/05/24 08:00:30;;;;;;;0.90;0.70;;;16.40;99.90;;;;;;5093969;28;20614;-69
2022/05/24 08:02:56;;;;;;;1.27;0.80;;;16.30;99.90;;;;;;5093779;28;20612;-69
2022/05/24 08:05:23;;;;;;;0.90;0.90;;;16.10;99.90;;;;;;5093080;28;20640;-69
2022/05/24 08:07:50;;;;;;;2.10;1.00;;;16.00;99.90;;;;;;5093773;28;20621;-69
2022/05/24 08:10:17;;;;;;;2.43;0.93;;;16.10;99.90;;;;;;5094433;28;20616;-68
2022/05/24 08:12:44;;;;;;;1.27;1.20;;;16.20;99.90;;;;;;5094269;28;20648;-71
2022/05/24 08:15:11;;;;;;;0.80;0.80;;;16.30;99.90;;;;;;5076143;28;20629;-70
2022/05/24 08:17:38;;;;;;;1.30;1.00;;;16.60;99.90;;;;;;5093942;28;20605;-70
2022/05/24 08:20:06;;;;;;;1.87;1.00;;;16.60;99.90;;;;;;5093784;28;20625;-71
2022/05/24 08:22:32;;;;;;;1.20;1.10;;;16.50;99.90;;;;;;5093935;28;20620;-70
2022/05/24 08:24:58;;;;;;;2.40;0.90;;;16.70;99.90;;;;;;5093216;28;20996;-69
2022/05/24 08:27:25;;;;;;;2.10;1.00;;;17.00;99.90;;;;;;5075189;28;20621;-68
2022/05/24 08:29:51;;;;;;;1.60;1.20;;;17.00;99.90;;;;;;5075564;28;20609;-68
2022/05/24 08:32:18;;;;;;;0.87;0.87;;;17.00;99.90;;;;;;5093497;28;20652;-69
2022/05/24 08:34:45;;;;;;;1.53;1.10;;;16.70;99.90;;;;;;5093640;28;20593;-69
2022/05/24 08:37:11;;;;;;;0.80;0.80;;;17.10;99.90;;;;;;5094011;28;20696;-70
2022/05/24 08:39:37;;;;;;;1.30;1.00;;;17.80;99.90;;;;;;5093897;28;20636;-69
2022/05/24 08:42:05;;;;;;;0.93;0.80;;;17.80;99.90;;;;;;5093602;28;20641;-69
2022/05/24 08:50:18;;;;;;;2.40;1.10;;;17.00;99.90;;;;;;5078335;28;20578;-69
2022/05/24 08:52:54;;;;;;;1.20;1.10;;;16.90;99.90;;;;;;5093179;28;20648;-68
2022/05/24 08:55:20;;;;;;;5.47;1.53;;;16.90;99.90;;;;;;5093614;28;20646;-68
2022/05/24 08:57:53;;;;;;;3.13;1.00;;;17.00;99.90;;;;;;5096327;28;20622;-69
2022/05/24 09:00:34;;;;;;;1.33;1.23;;;17.60;99.90;;;;;;5096520;28;20643;-69
2022/05/24 09:03:04;;;;;;;1.37;1.00;;;17.30;99.90;;;;;;5096330;28;21170;-70
2022/05/24 09:05:38;;;;;;;2.13;1.07;;;17.50;99.90;;;;;;5096253;28;20643;-70
2022/05/24 09:08:27;;;;;;;1.10;1.00;;;17.60;99.90;;;;;;5096008;28;20624;-68
2022/05/24 09:11:04;;;;;;;0.93;0.80;;;17.70;99.90;;;;;;5096000;28;20584;-70
2022/05/24 09:13:52;;;;;;;1.87;1.10;;;17.40;99.90;;;;;;5096204;28;20532;-75
2022/05/24 09:16:19;;;;;;;2.20;1.00;;;17.50;99.90;;;;;;5095902;28;20649;-70
2022/05/24 09:19:12;;;;;;;1.20;0.90;;;16.90;99.90;;;;;;5078455;28;20628;-70
2022/05/24 09:21:42;;;;;;;1.03;0.90;;;16.60;99.90;;;;;;5096263;28;20577;-70
2022/05/24 09:24:21;;;;;;;0.90;0.90;;;16.40;99.90;;;;;;5095579;28;20985;-69
2022/05/24 09:27:11;;;;;;;1.60;1.10;;;16.20;99.90;;;;;;5096451;28;20974;-70
2022/05/24 09:30:08;;;;;;;2.20;0.80;;;16.50;99.90;;;;;;5096618;28;20605;-69
2022/05/24 09:32:40;;;;;;;1.73;1.00;;;16.70;99.90;;;;;;5095777;28;20633;-68
2022/05/24 09:35:07;;;;;;;1.27;1.17;;;17.20;99.90;;;;;;5095882;28;20621;-68
2022/05/24 09:37:33;;;;;;;3.70;0.97;;;17.50;99.90;;;;;;5095565;28;20624;-68
2022/05/24 09:40:15;;;;;;;1.67;1.33;;;17.40;99.90;;;;;;5078078;28;20616;-69
2022/05/24 09:42:42;;;;;;;1.70;1.17;;;17.40;99.90;;;;;;5077553;28;20617;-69
2022/05/24 09:45:27;;;;;;;2.10;1.13;;;17.20;99.90;;;;;;5095571;28;20617;-69
2022/05/24 09:47:58;;;;;;;1.73;1.20;;;17.20;99.90;;;;;;5095398;28;20635;-69
2022/05/24 09:50:32;;;;;;;1.73;1.20;;;17.40;99.90;;;;;;5095638;28;20573;-69
2022/05/24 09:53:17;;;;;;;1.67;1.23;;;17.40;99.90;;;;;;5095187;28;20629;-69
2022/05/24 09:55:45;;;;;;;1.27;0.90;;;17.50;99.90;;;;;;5077422;28;20625;-69
2022/05/24 09:58:16;;;;;;;0.90;0.90;;;17.60;99.90;;;;;;5095066;28;20617;-69
2022/05/24 10:01:02;;;;;;;4.10;1.20;;;17.60;99.90;;;;;;5095542;28;20662;-71
2022/05/24 10:04:16;;;;;;;1.30;1.20;;;17.60;99.90;;;;;;5094907;28;20930;-69
2022/05/24 10:06:58;;;;;;;1.30;1.20;;;18.10;99.90;;;;;;5086163;28;20993;-70
2022/05/24 10:09:51;;;;;;;1.20;1.10;;;18.10;99.90;;;;;;5075920;28;20617;-70
2022/05/24 10:13:02;;;;;;;1.60;1.50;;;18.30;99.90;;;;;;5094967;28;20661;-69
2022/05/24 10:15:51;;;;;;;1.30;1.20;;;18.20;99.90;;;;;;5073050;28;20628;-70
2022/05/24 10:18:17;;;;;;;1.17;1.17;;;18.70;99.90;;;;;;5094868;28;20625;-70
2022/05/24 10:21:01;;;;;;;1.67;1.10;;;19.20;99.90;;;;;;5095219;28;20957;-69
2022/05/24 10:23:40;;;;;;;1.60;1.50;;;19.40;99.90;;;;;;5095277;28;20589;-69
2022/05/24 10:26:18;;;;;;;1.97;1.87;;;19.70;99.90;;;;;;5094785;28;20633;-69
2022/05/24 10:29:20;;;;;;;2.23;2.03;;;19.50;99.90;;;;;;5076928;28;20615;-69
2022/05/24 10:31:56;;;;;;;2.20;2.10;;;19.50;99.90;;;;;;5044056;28;20656;-69
2022/05/24 10:38:19;;;;;;;2.93;2.13;;;19.70;99.90;;;;;;5095085;28;20593;-69
2022/05/24 10:41:01;;;;;;;1.90;1.80;;;20.20;99.90;;;;;;5094058;28;20652;-70
2022/05/24 10:43:52;;;;;;;3.43;1.90;;;19.60;99.90;;;;;;5094562;28;20621;-69
2022/05/24 10:46:34;;;;;;;2.17;2.07;;;19.50;99.90;;;;;;5094385;28;20613;-69
2022/05/24 10:49:25;;;;;;;3.27;1.80;;;19.60;99.90;;;;;;5094065;28;20588;-69
2022/05/24 10:52:00;;;;;;;2.40;2.10;;;19.50;99.90;;;;;;5093532;28;20659;-69
2022/05/24 10:54:36;;;;;;;2.00;1.90;;;19.70;99.90;;;;;;5094152;28;20665;-70
2022/05/24 10:57:10;;;;;;;2.10;2.00;;;19.90;99.90;;;;;;5094359;28;20946;-69
2022/05/24 10:59:51;;;;;;;2.23;1.93;;;20.20;99.90;;;;;;5093928;28;20624;-69
2022/05/24 11:02:43;;;;;;;2.13;2.00;;;19.90;99.90;;;;;;5093537;28;20712;-70
2022/05/24 11:05:19;;;;;;;2.40;2.00;;;20.50;99.90;;;;;;5094099;28;21054;-70
2022/05/24 11:07:49;;;;;;;2.27;2.17;;;20.20;99.90;;;;;;5094060;28;20573;-69
2022/05/24 11:10:30;;;;;;;2.40;2.27;;;19.90;99.90;;;;;;5093992;28;20666;-71
2022/05/24 11:13:02;;;;;;;2.33;2.13;;;20.20;99.90;;;;;;5094078;28;20693;-70
2022/05/24 11:15:36;;;;;;;6.07;2.10;;;20.30;99.90;;;;;;5093783;28;20570;-70
2022/05/24 11:18:20;;;;;;;2.27;2.17;;;20.80;99.90;;;;;;5094358;28;20579;-70
2022/05/24 11:20:57;;;;;;;2.90;2.60;;;;;;;;;;5093746;28;20593;-70
2022/05/24 11:23:34;;;;;;;2.40;2.30;;;20.80;99.90;;;;;;5075481;28;20617;-70
2022/05/24 11:26:18;;;;;;;2.40;2.30;;;20.80;99.90;;;;;;5093929;28;21194;-70
2022/05/24 11:28:50;;;;;;;2.57;2.47;;;21.00;99.90;;;;;;5093963;28;20629;-70
2022/05/24 11:31:40;;;;;;;2.90;2.80;;;21.20;99.90;;;;;;5093371;28;21012;-71
2022/05/24 11:34:25;;;;;;;2.70;2.60;;;21.80;99.90;;;;;;5094356;28;20906;-70
2022/05/24 11:37:13;;;;;;;3.00;2.90;;;21.90;99.90;;;;;;5075232;28;20625;-70
2022/05/24 11:39:43;;;;;;;2.80;2.70;;;22.30;99.90;;;;;;5093441;28;20621;-70
2022/05/24 11:42:29;;;;;;;3.00;2.80;;;21.90;99.90;;;;;;5075314;28;20663;-70
2022/05/24 11:44:57;;;;;;;3.90;3.60;;;21.10;99.90;;;;;;5092966;28;20614;-70
2022/05/24 11:47:37;;;;;;;3.70;3.43;;;21.10;99.90;;;;;;5093387;28;20594;-70
2022/05/24 11:50:04;;;;;;;3.33;2.67;;;21.30;99.90;;;;;;5092465;28;20678;-70
2022/05/24 11:52:44;;;;;;;2.70;2.60;;;20.80;99.90;;;;;;5093775;28;20649;-70
2022/05/24 11:55:47;;;;;;;2.53;2.43;;;21.00;99.90;;;;;;5092868;28;20712;-70
2022/05/24 11:58:20;;;;;;;2.60;2.50;;;19.80;99.90;;;;;;5093007;28;20574;-70
2022/05/24 12:01:00;;;;;;;3.67;2.50;;;19.30;99.90;;;;;;5093371;28;20758;-69
2022/05/24 12:09:24;;;;;;;2.77;2.67;;;20.50;99.90;;;;;;5093109;28;21003;-70
2022/05/24 12:12:18;;;;;;;2.70;2.60;;;21.00;99.90;;;;;;5093015;28;20687;-69
2022/05/24 12:14:45;;;;;;;2.50;2.40;;;21.70;99.90;;;;;;5093265;28;20972;-70
2022/05/24 12:17:24;;;;;;;3.30;2.63;;;22.10;99.90;;;;;;5093456;28;20628;-70
2022/05/24 12:19:52;;;;;;;2.90;2.70;;;22.40;99.90;;;;;;5093494;28;20570;-70
2022/05/24 12:22:30;;;;;;;2.97;2.70;;;21.80;99.90;;;;;;5092779;28;20625;-70
2022/05/24 12:24:59;;;;;;;3.00;2.90;;;22.90;99.90;;;;;;5075605;28;20618;-73
2022/05/24 12:27:56;;;;;;;3.27;3.17;;;22.60;99.90;;;;;;5100163;28;20716;-73
2022/05/24 12:30:29;;;;;;;3.27;3.17;;;22.30;99.90;;;;;;5102434;28;20688;-73
2022/05/24 12:33:05;;;;;;;3.10;3.00;;;22.00;99.90;;;;;;5107356;28;20653;-73
2022/05/24 12:35:32;;;;;;;3.30;3.20;;;22.60;99.90;;;;;;5103394;28;20581;-73
2022/05/24 12:37:58;;;;;;;3.10;3.00;;;22.20;99.90;;;;;;5098864;28;20605;-73
2022/05/24 12:40:31;;;;;;;4.40;3.30;;;23.20;99.90;;;;;;5081099;28;20637;-73
2022/05/24 12:43:00;;;;;;;3.20;3.10;;;24.30;99.90;;;;;;5103408;28;20656;-74
2022/05/24 12:45:32;;;;;;;3.10;3.00;;;22.40;99.90;;;;;;5105422;28;21195;-77
2022/05/24 12:47:58;;;;;;;3.20;3.10;;;22.80;99.90;;;;;;5102354;28;20585;-73
2022/05/24 12:50:36;;;;;;;3.70;3.60;;;22.60;99.90;;;;;;5103983;28;20688;-73
2022/05/24 12:53:09;;;;;;;2.70;2.60;;;21.80;99.90;;;;;;5107181;28;21206;-73
2022/05/24 12:55:56;;;;;;;3.23;3.00;;;22.10;99.90;;;;;;5114242;28;20600;-73
2022/05/24 12:58:31;;;;;;;2.97;2.87;;;22.50;99.90;;;;;;5115017;28;20590;-73
2022/05/24 13:01:18;;;;;;;3.00;2.80;;;22.10;99.90;;;;;;5113606;28;20600;-73
2022/05/24 13:03:49;;;;;;;3.03;2.93;;;22.50;99.90;;;;;;5113575;28;20570;-73
2022/05/24 13:06:30;;;;;;;3.33;3.13;;;22.00;99.90;;;;;;5092761;28;20649;-73
2022/05/24 13:09:18;;;;;;;3.33;3.13;;;21.80;99.90;;;;;;5112000;28;20593;-74
2022/05/24 13:11:49;;;;;;;3.23;3.13;;;23.30;99.90;;;;;;5103053;28;20965;-73
2022/05/24 13:14:39;;;;;;;3.00;2.90;;;22.90;99.90;;;;;;5110472;28;20641;-73
2022/05/24 13:17:09;;;;;;;3.20;3.10;;;22.70;99.90;;;;;;5070983;28;20585;-73
2022/05/24 13:20:09;;;;;;;3.00;2.83;;;23.10;99.90;;;;;;5105421;28;20585;-73
2022/05/24 13:22:55;;;;;;;2.80;2.70;;;22.90;99.90;;;;;;5101597;28;20621;-73
2022/05/24 13:25:23;;;;;;;3.30;3.00;;;21.90;99.90;;;;;;5099733;28;20581;-74
2022/05/24 13:27:56;;;;;;;2.97;2.87;;;21.90;99.90;;;;;;5102653;28;20617;-73
2022/05/24 13:33:44;;;;;;;5.80;2.90;;;21.70;99.90;;;;;;5103688;28;20668;-73
2022/05/24 13:36:16;;;;;;;6.30;2.90;;;21.90;99.90;;;;;;5100603;28;20569;-73
2022/05/24 13:38:44;;;;;;;2.90;2.80;;;21.70;99.90;;;;;;5099103;28;20628;-73
2022/05/24 13:41:12;;;;;;;3.40;3.20;;;21.30;99.90;;;;;;5105033;28;21312;-73
2022/05/24 13:43:44;;;;;;;2.83;2.73;;;21.00;99.90;;;;;;5113754;28;20636;-73
2022/05/24 13:46:21;;;;;;;2.90;2.80;;;22.20;99.90;;;;;;5113428;28;20648;-73
2022/05/24 13:48:55;;;;;;;2.90;2.80;;;23.20;99.90;;;;;;5113226;28;20577;-74
2022/05/24 13:51:33;;;;;;;3.80;3.50;;;24.40;99.90;;;;;;5111796;28;20667;-73
2022/05/24 13:54:01;;;;;;;3.37;3.27;;;25.10;99.90;;;;;;5115031;28;20589;-74
2022/05/24 13:56:31;;;;;;;3.50;3.10;;;24.60;99.90;;;;;;5112030;28;20601;-72
2022/05/24 13:59:22;;;;;;;4.20;2.97;;;21.60;99.90;;;;;;5112086;28;20613;-74
2022/05/24 14:02:12;;;;;;;3.40;3.20;;;21.20;99.90;;;;;;5101491;28;20683;-72